Pointe Aux Barques, Michigan
Current Conditions -  °F | °C
As of 2:19 PM on Tuesday 21 Oct 2014 (Local Time) from KBAX Reporting Station
Overcast Overcast  
Wind Chill: 36°   Ceiling: 1800
Heat Index: 43°   Visibility: 10mi
Dew Point: 39°   Wind: 15mph
Humidity: 84%   Direction: 20°NNE
Pressure: 30.1"   Gusts: 24mph
Location:  44.0077°N, 82.9857°W
Report Text: KBAX 211819Z AUTO 02013G21KT 10SM OVC018 06/04 A3010 RMK AO2 T00620037
Loading
Personal Weather Stations






























Interactive Weather Map
Tropical Storm Tracking
New forecast layout! Learn more

10-Day Weather Forecast

Advertisements
Track Severe Weather on mobile